createdAt,value
2022-10-17T00:00:16.995Z,15.72
2022-10-17T00:05:19.098Z,15.71
2022-10-17T00:10:22.335Z,15.65
2022-10-17T00:15:26.877Z,15.62
2022-10-17T00:20:30.524Z,15.60
2022-10-17T00:25:32.665Z,15.58
2022-10-17T00:30:34.697Z,15.58
2022-10-17T00:35:37.349Z,15.54
2022-10-17T00:40:39.586Z,15.52
2022-10-17T00:45:42.315Z,15.41
2022-10-17T00:50:48.960Z,15.38
2022-10-17T00:55:53.208Z,15.25
2022-10-17T01:00:55.199Z,15.27
2022-10-17T01:05:57.457Z,15.33
2022-10-17T01:11:11.996Z,15.42
2022-10-17T01:16:34.698Z,15.51
2022-10-17T01:21:50.740Z,15.56
2022-10-17T01:27:33.901Z,15.67
2022-10-17T01:32:45.358Z,15.76
2022-10-17T01:38:11.753Z,15.91
2022-10-17T01:43:17.016Z,16.00
2022-10-17T01:48:23.856Z,15.92
2022-10-17T01:53:32.001Z,15.86
2022-10-17T01:58:38.397Z,15.75
2022-10-17T02:03:43.655Z,16.12
2022-10-17T02:08:48.611Z,15.96
2022-10-17T02:14:03.190Z,15.95
2022-10-17T02:19:33.641Z,15.88
2022-10-17T02:24:48.438Z,15.70
2022-10-17T02:30:01.180Z,15.53
2022-10-17T02:35:07.478Z,15.51
2022-10-17T02:40:11.280Z,15.34
2022-10-17T02:45:15.884Z,15.28
2022-10-17T02:50:20.061Z,15.19
2022-10-17T02:55:28.504Z,15.12
2022-10-17T03:00:33.383Z,15.12
2022-10-17T03:05:36.021Z,15.11
2022-10-17T03:10:37.987Z,15.21
2022-10-17T03:15:41.095Z,15.23
2022-10-17T03:20:43.793Z,15.24
2022-10-17T03:25:45.894Z,15.36
2022-10-17T03:30:49.628Z,15.51
2022-10-17T03:35:51.673Z,15.65
2022-10-17T03:40:57.110Z,15.78
2022-10-17T03:46:00.749Z,15.92
2022-10-17T03:51:09.215Z,15.91
2022-10-17T03:56:22.062Z,15.93
2022-10-17T04:01:35.342Z,15.89
2022-10-17T04:06:38.300Z,15.83
2022-10-17T04:11:40.647Z,15.84
2022-10-17T04:16:42.977Z,15.80
2022-10-17T04:21:52.602Z,15.68
2022-10-17T04:26:55.808Z,15.67
2022-10-17T04:32:00.668Z,15.59
2022-10-17T04:37:10.933Z,15.47
2022-10-17T04:42:13.316Z,15.34
2022-10-17T04:47:16.263Z,15.27
2022-10-17T04:52:19.033Z,15.17
2022-10-17T04:57:24.918Z,15.10
2022-10-17T05:02:34.753Z,15.08
2022-10-17T05:07:41.587Z,14.88
2022-10-17T05:12:49.601Z,14.88
2022-10-17T05:18:04.163Z,14.84
2022-10-17T05:23:07.981Z,14.81
2022-10-17T05:28:14.808Z,14.87
2022-10-17T05:33:19.371Z,14.88
2022-10-17T05:38:21.680Z,15.01
2022-10-17T05:43:25.147Z,15.07
2022-10-17T05:48:28.325Z,15.17
2022-10-17T05:53:32.965Z,15.30
2022-10-17T05:58:50.308Z,15.37
2022-10-17T06:04:17.381Z,15.46
2022-10-17T06:09:19.501Z,15.57
2022-10-17T06:14:24.565Z,15.73
2022-10-17T06:19:30.790Z,15.86
2022-10-17T06:24:32.968Z,16.04
2022-10-17T06:29:39.048Z,16.25
2022-10-17T06:34:41.488Z,16.40
2022-10-17T06:39:44.385Z,16.47
2022-10-17T06:44:53.449Z,16.43
2022-10-17T06:50:12.006Z,16.64
2022-10-17T06:55:22.651Z,16.60
2022-10-17T07:00:48.481Z,16.64
2022-10-17T07:05:56.913Z,16.62
2022-10-17T07:11:09.316Z,16.79
2022-10-17T07:16:12.467Z,16.92
2022-10-17T07:21:15.904Z,17.15
2022-10-17T07:26:19.694Z,17.35
2022-10-17T07:31:24.086Z,17.47
2022-10-17T07:36:26.922Z,17.63
2022-10-17T07:41:30.493Z,17.66
2022-10-17T07:46:39.030Z,17.89
2022-10-17T07:51:41.974Z,18.00
2022-10-17T07:56:44.116Z,18.20
2022-10-17T08:01:46.404Z,18.29
2022-10-17T08:06:50.827Z,18.47
2022-10-17T08:11:55.368Z,18.77
2022-10-17T08:16:57.537Z,18.95
2022-10-17T08:21:59.600Z,19.13
2022-10-17T08:27:01.714Z,19.12
2022-10-17T08:32:06.509Z,19.27
2022-10-17T08:42:13.107Z,19.65
2022-10-17T08:47:20.927Z,19.62
2022-10-17T08:52:45.109Z,19.95
2022-10-17T08:57:48.174Z,19.99
2022-10-17T09:03:14.724Z,19.91
2022-10-17T09:08:53.132Z,19.89
2022-10-17T09:14:13.337Z,19.98
2022-10-17T09:19:30.429Z,20.00
2022-10-17T09:24:51.137Z,20.18
2022-10-17T09:30:21.508Z,20.22
2022-10-17T09:35:38.377Z,20.36
2022-10-17T09:40:40.821Z,20.51
2022-10-17T09:46:00.337Z,20.51
2022-10-17T09:51:21.719Z,20.55
2022-10-17T09:56:24.314Z,20.77
2022-10-17T10:01:30.759Z,20.76
2022-10-17T10:06:32.822Z,20.99
2022-10-17T10:11:49.940Z,20.79
2022-10-17T10:16:53.759Z,20.94
2022-10-17T10:21:58.437Z,21.02
2022-10-17T10:27:04.247Z,21.14
2022-10-17T10:32:17.349Z,21.11
2022-10-17T10:37:27.446Z,21.03
2022-10-17T10:42:33.030Z,21.08
2022-10-17T10:47:35.644Z,21.31
2022-10-17T10:52:47.837Z,21.48
2022-10-17T10:57:53.120Z,21.72
2022-10-17T11:03:13.689Z,21.81
2022-10-17T11:08:43.275Z,21.91
2022-10-17T11:13:54.932Z,22.35
2022-10-17T11:19:16.687Z,22.54
2022-10-17T11:24:25.434Z,22.54
2022-10-17T11:29:36.303Z,22.69
2022-10-17T11:34:46.608Z,22.88
2022-10-17T11:39:56.412Z,23.00
2022-10-17T11:45:20.652Z,23.12
2022-10-17T11:56:03.113Z,23.31
2022-10-17T12:01:31.917Z,23.38
2022-10-17T12:06:48.753Z,23.15
2022-10-17T12:11:54.310Z,23.12
2022-10-17T12:16:56.290Z,23.22
2022-10-17T12:22:19.044Z,23.30
2022-10-17T12:27:33.362Z,23.53
2022-10-17T12:32:53.340Z,23.67
2022-10-17T12:38:16.680Z,23.62
2022-10-17T12:43:18.624Z,23.67
2022-10-17T12:48:39.062Z,23.64
2022-10-17T12:53:47.472Z,23.47
2022-10-17T12:58:51.750Z,23.38
2022-10-17T13:03:56.035Z,23.50
2022-10-17T13:09:05.573Z,23.53
2022-10-17T13:14:16.429Z,23.42
2022-10-17T13:19:23.573Z,23.28
2022-10-17T13:24:30.493Z,23.36
2022-10-17T13:29:32.991Z,23.20
2022-10-17T13:34:35.801Z,23.18
2022-10-17T13:39:55.223Z,23.23
2022-10-17T13:44:59.112Z,23.18
2022-10-17T13:50:01.202Z,23.14
2022-10-17T13:55:17.552Z,23.16
2022-10-17T14:00:23.011Z,22.96
2022-10-17T14:05:25.605Z,23.06
2022-10-17T14:10:37.460Z,23.05
2022-10-17T14:15:45.864Z,23.06
2022-10-17T14:26:21.136Z,22.94
2022-10-17T14:31:32.217Z,22.87
2022-10-17T14:36:38.393Z,22.77
2022-10-17T14:41:47.713Z,22.64
2022-10-17T14:46:57.962Z,22.52
2022-10-17T14:52:17.993Z,22.39
2022-10-17T14:57:35.113Z,22.29
2022-10-17T15:02:37.330Z,22.14
2022-10-17T15:07:39.552Z,21.97
2022-10-17T15:12:51.064Z,21.75
2022-10-17T15:18:00.970Z,21.57
2022-10-17T15:23:03.989Z,21.32
2022-10-17T15:28:07.649Z,21.09
2022-10-17T15:33:09.713Z,20.85
2022-10-17T15:38:17.927Z,20.66
2022-10-17T15:43:20.242Z,20.49
2022-10-17T15:48:29.325Z,20.31
2022-10-17T15:53:31.308Z,20.14
2022-10-17T15:58:40.422Z,20.01
2022-10-17T16:03:42.614Z,19.87
2022-10-17T16:08:49.237Z,19.72
2022-10-17T16:13:53.531Z,19.59
2022-10-17T16:18:55.745Z,19.47
2022-10-17T16:23:57.760Z,19.36
2022-10-17T16:29:02.848Z,19.21
2022-10-17T16:34:06.556Z,19.06
2022-10-17T16:39:08.950Z,18.96
2022-10-17T16:44:14.772Z,18.84
2022-10-17T16:49:18.204Z,18.77
2022-10-17T16:54:20.069Z,18.69
2022-10-17T16:59:22.151Z,18.57
2022-10-17T17:04:24.344Z,18.47
2022-10-17T17:09:26.755Z,18.41
2022-10-17T17:14:28.761Z,18.43
2022-10-17T17:19:30.809Z,18.35
2022-10-17T17:24:39.141Z,18.30
2022-10-17T17:29:58.711Z,18.26
2022-10-17T17:35:06.062Z,18.14
2022-10-17T17:40:08.452Z,18.08
2022-10-17T17:45:10.866Z,18.07
2022-10-17T17:50:13.479Z,17.96
2022-10-17T17:55:15.687Z,17.98
2022-10-17T18:00:17.720Z,17.96
2022-10-17T18:05:19.701Z,17.89
2022-10-17T18:10:22.052Z,17.84
2022-10-17T18:15:24.248Z,17.81
2022-10-17T18:20:27.746Z,17.72
2022-10-17T18:25:29.608Z,17.77
2022-10-17T18:30:34.477Z,17.60
2022-10-17T18:35:36.569Z,17.66
2022-10-17T18:40:38.575Z,17.64
2022-10-17T18:45:40.563Z,17.61
2022-10-17T18:50:42.801Z,17.54
2022-10-17T19:00:52.071Z,17.46
2022-10-17T19:05:56.667Z,17.48
2022-10-17T19:11:37.613Z,17.48
2022-10-17T19:16:48.804Z,17.49
2022-10-17T19:21:57.347Z,17.52
2022-10-17T19:27:02.679Z,17.44
2022-10-17T19:32:12.106Z,17.38
2022-10-17T19:37:18.111Z,17.33
2022-10-17T19:42:20.296Z,17.24
2022-10-17T19:47:22.257Z,17.18
2022-10-17T19:52:24.454Z,17.13
2022-10-17T19:57:26.501Z,17.04
2022-10-17T20:02:28.837Z,16.91
2022-10-17T20:07:31.056Z,16.87
2022-10-17T20:12:33.680Z,16.78
2022-10-17T20:17:35.739Z,16.79
2022-10-17T20:22:37.765Z,16.70
2022-10-17T20:27:40.022Z,16.65
2022-10-17T20:32:42.173Z,16.63
2022-10-17T20:37:44.154Z,16.57
2022-10-17T20:42:46.238Z,16.46
2022-10-17T20:47:52.451Z,16.43
2022-10-17T20:53:06.321Z,16.30
2022-10-17T20:58:16.673Z,16.33
2022-10-17T21:03:18.726Z,16.29
2022-10-17T21:08:20.742Z,16.25
2022-10-17T21:13:22.989Z,16.19
2022-10-17T21:18:25.131Z,16.14
2022-10-17T21:23:28.129Z,16.12
2022-10-17T21:28:31.165Z,16.06
2022-10-17T21:33:33.361Z,15.90
2022-10-17T21:38:37.649Z,16.00
2022-10-17T21:43:46.613Z,15.92
2022-10-17T21:48:49.508Z,15.86
2022-10-17T21:53:53.388Z,15.84
2022-10-17T21:58:55.860Z,15.75
2022-10-17T22:03:59.745Z,15.74
2022-10-17T22:09:02.483Z,15.65
2022-10-17T22:14:07.688Z,15.60
2022-10-17T22:19:11.336Z,15.52
2022-10-17T22:24:14.959Z,15.38
2022-10-17T22:29:17.139Z,15.37
2022-10-17T22:34:19.557Z,15.21
2022-10-17T22:39:21.433Z,15.14
2022-10-17T22:44:25.431Z,15.01
2022-10-17T22:49:27.315Z,14.88
2022-10-17T22:54:29.237Z,14.93
2022-10-17T22:59:31.196Z,14.92
2022-10-17T23:04:33.744Z,14.80
2022-10-17T23:09:35.634Z,14.74
2022-10-17T23:14:37.973Z,14.65
2022-10-17T23:19:40.084Z,14.63
2022-10-17T23:24:42.022Z,14.74
2022-10-17T23:29:43.897Z,14.78
2022-10-17T23:34:45.861Z,14.82
2022-10-17T23:39:47.917Z,14.91
2022-10-17T23:44:49.893Z,14.89
2022-10-17T23:49:52.009Z,14.87
2022-10-17T23:54:54.205Z,14.88
2022-10-17T23:59:56.117Z,14.88
